Cedar Park's Hourly Summary for Friday, March 17, 2017
Hour Temp
(f)
RH
(%)
Solar Rad.
(MJ/m2)
Rainfall
(in)
Wind
(mph)
3/17/2017 12:00 AM 66 80 0 0 10.59
3/17/2017 1:00 AM 65 86 0 0 9.52
3/17/2017 2:00 AM 65 91 0 0 8.82
3/17/2017 3:00 AM 65 91 0 0 9.82
3/17/2017 4:00 AM 65 90 0 0 8.63
3/17/2017 5:00 AM 65 90 0 0 8.12
3/17/2017 6:00 AM 65 91 0 0 7.3
3/17/2017 7:00 AM 65 92 0 0 7.86
3/17/2017 8:00 AM 64 95 0 0 7.19
3/17/2017 9:00 AM 63 100 0.04 0 6.07
3/17/2017 10:00 AM 63 100 0.13 0 5.81
3/17/2017 11:00 AM 65 99 0.29 0 7.79
3/17/2017 12:00 PM 66 91 0.41 0 6.69
3/17/2017 1:00 PM 68 81 0.62 0 6.58
3/17/2017 2:00 PM 71 69 1.22 0 7.73
3/17/2017 3:00 PM 74 62 1.44 0 8.09
3/17/2017 4:00 PM 76 54 2.2 0 10.23
3/17/2017 5:00 PM 77 52 1.82 0 8.6
3/17/2017 6:00 PM 78 50 0.67 0 9.15
3/17/2017 7:00 PM 77 51 0.16 0 8.64
3/17/2017 8:00 PM 75 54 0.05 0 7.22
3/17/2017 9:00 PM 72 66 0 0 7.25
3/17/2017 10:00 PM 70 71 0 0 8.26
3/17/2017 11:00 PM 68 77 0 0 7.92
Data Summary 68 78 9.05 0.00 8.08